sensor_id;sensor_type;location;lat;lon;timestamp;temperature;humidity
47845;DHT22;33605;48.822;8.796;2022-12-29T15:09:41;10.80;51.60
47845;DHT22;33605;48.822;8.796;2022-12-29T15:12:15;15.30;65.50
47845;DHT22;33605;48.822;8.796;2022-12-29T15:14:54;15.30;59.30
47845;DHT22;33605;48.822;8.796;2022-12-29T15:19:52;15.20;61.70
47845;DHT22;33605;48.822;8.796;2022-12-29T15:22:18;15.10;61.50
47845;DHT22;33605;48.822;8.796;2022-12-29T15:24:44;14.90;60.30
47845;DHT22;33605;48.822;8.796;2022-12-29T15:27:14;14.90;60.10
47845;DHT22;33605;48.822;8.796;2022-12-29T15:29:42;15.00;60.00
47845;DHT22;33605;48.822;8.796;2022-12-29T15:32:23;15.00;59.80
47845;DHT22;33605;48.822;8.796;2022-12-29T15:34:52;14.90;59.60
47845;DHT22;33605;48.822;8.796;2022-12-29T15:37:27;14.40;59.10
47845;DHT22;33605;48.822;8.796;2022-12-29T15:39:54;14.30;59.50
47845;DHT22;33605;48.822;8.796;2022-12-29T15:44:54;14.30;59.60
47845;DHT22;33605;48.822;8.796;2022-12-29T15:47:23;14.10;59.70
47845;DHT22;33605;48.822;8.796;2022-12-29T15:49:52;14.00;60.10
47845;DHT22;33605;48.822;8.796;2022-12-29T15:52:20;13.90;60.00
47845;DHT22;33605;48.822;8.796;2022-12-29T15:54:49;13.90;60.30
47845;DHT22;33605;48.822;8.796;2022-12-29T15:57:28;13.80;60.00
47845;DHT22;33605;48.822;8.796;2022-12-29T15:59:54;13.60;60.80
47845;DHT22;33605;48.822;8.796;2022-12-29T16:02:24;13.60;60.80
47845;DHT22;33605;48.822;8.796;2022-12-29T16:04:51;13.50;61.40
47845;DHT22;33605;48.822;8.796;2022-12-29T16:07:35;13.50;62.50
47845;DHT22;33605;48.822;8.796;2022-12-29T16:10:02;13.40;62.70
47845;DHT22;33605;48.822;8.796;2022-12-29T16:12:36;13.30;62.80
47845;DHT22;33605;48.822;8.796;2022-12-29T16:15:07;13.30;63.20
47845;DHT22;33605;48.822;8.796;2022-12-29T16:17:49;13.30;55.30
47845;DHT22;33605;48.822;8.796;2022-12-29T16:20:20;13.30;56.00
47845;DHT22;33605;48.822;8.796;2022-12-29T16:22:50;13.30;55.50
47845;DHT22;33605;48.822;8.796;2022-12-29T16:27:46;13.20;56.40
47845;DHT22;33605;48.822;8.796;2022-12-29T16:30:24;13.20;56.60
47845;DHT22;33605;48.822;8.796;2022-12-29T16:32:52;13.20;56.80
47845;DHT22;33605;48.822;8.796;2022-12-29T16:35:28;13.20;56.90
47845;DHT22;33605;48.822;8.796;2022-12-29T16:38:20;13.20;57.00
47845;DHT22;33605;48.822;8.796;2022-12-29T16:41:00;13.10;57.20
47845;DHT22;33605;48.822;8.796;2022-12-29T16:43:33;13.10;57.20
47845;DHT22;33605;48.822;8.796;2022-12-29T16:48:34;13.10;57.80
47845;DHT22;33605;48.822;8.796;2022-12-29T16:51:15;13.10;58.00
47845;DHT22;33605;48.822;8.796;2022-12-29T16:53:51;13.10;57.90
47845;DHT22;33605;48.822;8.796;2022-12-29T16:56:21;13.10;57.90
47845;DHT22;33605;48.822;8.796;2022-12-29T16:58:51;13.10;58.10
47845;DHT22;33605;48.822;8.796;2022-12-29T17:01:20;13.10;58.30
47845;DHT22;33605;48.822;8.796;2022-12-29T17:03:54;13.10;58.40
47845;DHT22;33605;48.822;8.796;2022-12-29T17:06:22;13.20;58.70
47845;DHT22;33605;48.822;8.796;2022-12-29T17:08:49;13.20;58.70
47845;DHT22;33605;48.822;8.796;2022-12-29T17:11:35;13.20;58.70
47845;DHT22;33605;48.822;8.796;2022-12-29T17:16:54;13.20;58.60
47845;DHT22;33605;48.822;8.796;2022-12-29T17:19:30;13.30;58.80
47845;DHT22;33605;48.822;8.796;2022-12-29T17:21:56;13.30;59.00
47845;DHT22;33605;48.822;8.796;2022-12-29T17:24:22;13.40;59.10
47845;DHT22;33605;48.822;8.796;2022-12-29T17:26:49;13.30;59.20
47845;DHT22;33605;48.822;8.796;2022-12-29T17:31:56;13.40;59.70
47845;DHT22;33605;48.822;8.796;2022-12-29T17:34:21;13.40;59.70
47845;DHT22;33605;48.822;8.796;2022-12-29T17:36:47;13.40;59.70
47845;DHT22;33605;48.822;8.796;2022-12-29T17:39:13;13.40;60.00
47845;DHT22;33605;48.822;8.796;2022-12-29T17:41:39;13.40;60.20
47845;DHT22;33605;48.822;8.796;2022-12-29T17:44:05;13.40;60.10
47845;DHT22;33605;48.822;8.796;2022-12-29T17:46:32;13.30;59.90
47845;DHT22;33605;48.822;8.796;2022-12-29T17:48:57;13.30;59.90
47845;DHT22;33605;48.822;8.796;2022-12-29T17:51:23;13.30;59.80
47845;DHT22;33605;48.822;8.796;2022-12-29T17:53:49;13.20;59.60
47845;DHT22;33605;48.822;8.796;2022-12-29T17:56:16;13.10;59.40
47845;DHT22;33605;48.822;8.796;2022-12-29T17:58:42;13.10;59.50
47845;DHT22;33605;48.822;8.796;2022-12-29T18:01:09;13.10;59.30
47845;DHT22;33605;48.822;8.796;2022-12-29T18:03:37;13.00;59.30
47845;DHT22;33605;48.822;8.796;2022-12-29T18:06:05;13.00;59.50
47845;DHT22;33605;48.822;8.796;2022-12-29T18:08:34;13.00;59.70
47845;DHT22;33605;48.822;8.796;2022-12-29T18:11:00;12.90;59.70
47845;DHT22;33605;48.822;8.796;2022-12-29T18:13:28;12.90;59.60
47845;DHT22;33605;48.822;8.796;2022-12-29T18:15:55;12.90;59.70
47845;DHT22;33605;48.822;8.796;2022-12-29T18:18:26;12.80;59.50
47845;DHT22;33605;48.822;8.796;2022-12-29T18:20:53;12.80;59.50
47845;DHT22;33605;48.822;8.796;2022-12-29T18:23:29;12.80;59.30
47845;DHT22;33605;48.822;8.796;2022-12-29T18:26:16;12.80;59.20
47845;DHT22;33605;48.822;8.796;2022-12-29T18:28:43;12.80;58.90
47845;DHT22;33605;48.822;8.796;2022-12-29T18:31:20;12.80;58.80
47845;DHT22;33605;48.822;8.796;2022-12-29T18:33:48;12.70;58.60
47845;DHT22;33605;48.822;8.796;2022-12-29T18:36:14;12.70;58.70
47845;DHT22;33605;48.822;8.796;2022-12-29T18:38:40;12.70;58.60
47845;DHT22;33605;48.822;8.796;2022-12-29T18:41:19;12.60;58.50
47845;DHT22;33605;48.822;8.796;2022-12-29T18:43:46;12.60;58.60
47845;DHT22;33605;48.822;8.796;2022-12-29T18:46:12;12.50;58.40
47845;DHT22;33605;48.822;8.796;2022-12-29T18:48:38;12.50;58.50
47845;DHT22;33605;48.822;8.796;2022-12-29T18:51:04;12.50;58.50
47845;DHT22;33605;48.822;8.796;2022-12-29T18:53:30;12.50;58.60
47845;DHT22;33605;48.822;8.796;2022-12-29T18:55:57;12.50;58.60
47845;DHT22;33605;48.822;8.796;2022-12-29T18:58:23;12.40;58.70
47845;DHT22;33605;48.822;8.796;2022-12-29T19:00:48;12.40;58.70
47845;DHT22;33605;48.822;8.796;2022-12-29T19:03:16;12.40;58.70
47845;DHT22;33605;48.822;8.796;2022-12-29T19:05:45;12.40;58.80
47845;DHT22;33605;48.822;8.796;2022-12-29T19:08:11;12.40;58.80
47845;DHT22;33605;48.822;8.796;2022-12-29T19:10:37;12.40;58.90
47845;DHT22;33605;48.822;8.796;2022-12-29T19:13:04;12.30;58.80
47845;DHT22;33605;48.822;8.796;2022-12-29T19:15:35;12.30;59.00
47845;DHT22;33605;48.822;8.796;2022-12-29T19:18:04;12.30;59.10
47845;DHT22;33605;48.822;8.796;2022-12-29T19:20:36;12.30;59.10
47845;DHT22;33605;48.822;8.796;2022-12-29T19:23:10;12.20;59.20
47845;DHT22;33605;48.822;8.796;2022-12-29T19:25:36;12.20;59.30
47845;DHT22;33605;48.822;8.796;2022-12-29T19:28:03;12.20;59.20
47845;DHT22;33605;48.822;8.796;2022-12-29T19:30:29;12.10;58.80
47845;DHT22;33605;48.822;8.796;2022-12-29T19:32:58;12.10;58.80
47845;DHT22;33605;48.822;8.796;2022-12-29T19:35:29;12.10;58.80
47845;DHT22;33605;48.822;8.796;2022-12-29T19:37:55;12.10;58.80
47845;DHT22;33605;48.822;8.796;2022-12-29T19:40:23;12.00;58.80
47845;DHT22;33605;48.822;8.796;2022-12-29T19:42:49;12.00;58.80
47845;DHT22;33605;48.822;8.796;2022-12-29T19:45:16;11.90;59.10
47845;DHT22;33605;48.822;8.796;2022-12-29T19:47:42;11.90;59.20
47845;DHT22;33605;48.822;8.796;2022-12-29T19:50:09;11.90;59.10
47845;DHT22;33605;48.822;8.796;2022-12-29T19:52:36;11.90;59.10
47845;DHT22;33605;48.822;8.796;2022-12-29T19:55:02;11.90;59.20
47845;DHT22;33605;48.822;8.796;2022-12-29T19:57:28;11.80;59.30
47845;DHT22;33605;48.822;8.796;2022-12-29T19:59:54;11.80;59.50
47845;DHT22;33605;48.822;8.796;2022-12-29T20:02:25;11.80;59.40
47845;DHT22;33605;48.822;8.796;2022-12-29T20:04:51;11.80;59.40
47845;DHT22;33605;48.822;8.796;2022-12-29T20:07:18;11.80;59.40
47845;DHT22;33605;48.822;8.796;2022-12-29T20:09:44;11.80;59.40
47845;DHT22;33605;48.822;8.796;2022-12-29T20:12:10;11.80;59.30
47845;DHT22;33605;48.822;8.796;2022-12-29T20:14:40;11.80;59.30
47845;DHT22;33605;48.822;8.796;2022-12-29T20:17:08;11.70;59.30
47845;DHT22;33605;48.822;8.796;2022-12-29T20:19:35;11.70;59.10
47845;DHT22;33605;48.822;8.796;2022-12-29T20:22:02;11.60;59.00
47845;DHT22;33605;48.822;8.796;2022-12-29T20:24:29;11.70;59.20
47845;DHT22;33605;48.822;8.796;2022-12-29T20:26:56;11.60;59.10
47845;DHT22;33605;48.822;8.796;2022-12-29T20:29:23;11.60;59.10
47845;DHT22;33605;48.822;8.796;2022-12-29T20:31:50;11.60;59.10
47845;DHT22;33605;48.822;8.796;2022-12-29T20:34:16;11.60;59.20
47845;DHT22;33605;48.822;8.796;2022-12-29T20:36:46;11.60;59.30
47845;DHT22;33605;48.822;8.796;2022-12-29T20:39:17;11.50;59.20
47845;DHT22;33605;48.822;8.796;2022-12-29T20:41:43;11.50;59.20
47845;DHT22;33605;48.822;8.796;2022-12-29T20:44:09;11.50;58.90
47845;DHT22;33605;48.822;8.796;2022-12-29T20:46:35;11.40;59.20
47845;DHT22;33605;48.822;8.796;2022-12-29T20:49:00;11.40;58.80
47845;DHT22;33605;48.822;8.796;2022-12-29T20:51:27;11.30;58.50
47845;DHT22;33605;48.822;8.796;2022-12-29T20:53:55;11.30;58.60
47845;DHT22;33605;48.822;8.796;2022-12-29T20:56:23;11.20;58.10
47845;DHT22;33605;48.822;8.796;2022-12-29T20:58:52;11.20;58.30
47845;DHT22;33605;48.822;8.796;2022-12-29T21:01:21;11.10;58.00
47845;DHT22;33605;48.822;8.796;2022-12-29T21:03:47;11.10;58.10
47845;DHT22;33605;48.822;8.796;2022-12-29T21:06:12;11.10;58.20
47845;DHT22;33605;48.822;8.796;2022-12-29T21:08:38;11.20;58.60
47845;DHT22;33605;48.822;8.796;2022-12-29T21:11:05;11.20;58.60
47845;DHT22;33605;48.822;8.796;2022-12-29T21:13:30;11.10;58.40
47845;DHT22;33605;48.822;8.796;2022-12-29T21:16:07;11.10;58.30
47845;DHT22;33605;48.822;8.796;2022-12-29T21:18:33;11.10;58.30
47845;DHT22;33605;48.822;8.796;2022-12-29T21:21:01;11.10;58.40
47845;DHT22;33605;48.822;8.796;2022-12-29T21:23:27;11.10;58.30
47845;DHT22;33605;48.822;8.796;2022-12-29T21:25:54;11.10;58.40
47845;DHT22;33605;48.822;8.796;2022-12-29T21:28:21;11.10;58.40
47845;DHT22;33605;48.822;8.796;2022-12-29T21:30:49;11.00;58.40
47845;DHT22;33605;48.822;8.796;2022-12-29T21:33:18;11.00;58.40
47845;DHT22;33605;48.822;8.796;2022-12-29T21:35:45;11.00;58.40
47845;DHT22;33605;48.822;8.796;2022-12-29T21:38:12;11.00;58.40
47845;DHT22;33605;48.822;8.796;2022-12-29T21:40:38;11.00;58.40
47845;DHT22;33605;48.822;8.796;2022-12-29T21:43:04;11.00;58.60
47845;DHT22;33605;48.822;8.796;2022-12-29T21:45:31;11.00;59.20
47845;DHT22;33605;48.822;8.796;2022-12-29T21:47:57;10.90;58.40
47845;DHT22;33605;48.822;8.796;2022-12-29T21:50:44;10.80;58.10
47845;DHT22;33605;48.822;8.796;2022-12-29T21:53:33;10.80;58.30
47845;DHT22;33605;48.822;8.796;2022-12-29T21:56:12;10.80;58.40
47845;DHT22;33605;48.822;8.796;2022-12-29T21:58:40;10.80;58.50
47845;DHT22;33605;48.822;8.796;2022-12-29T22:01:27;10.70;58.30
47845;DHT22;33605;48.822;8.796;2022-12-29T22:04:13;10.70;58.40
47845;DHT22;33605;48.822;8.796;2022-12-29T22:06:57;10.80;58.60
47845;DHT22;33605;48.822;8.796;2022-12-29T22:09:41;10.70;58.40
47845;DHT22;33605;48.822;8.796;2022-12-29T22:12:26;10.70;58.30
47845;DHT22;33605;48.822;8.796;2022-12-29T22:15:12;10.70;58.30
47845;DHT22;33605;48.822;8.796;2022-12-29T22:17:38;10.70;58.30
47845;DHT22;33605;48.822;8.796;2022-12-29T22:20:05;10.60;58.20
47845;DHT22;33605;48.822;8.796;2022-12-29T22:22:30;10.60;58.30
47845;DHT22;33605;48.822;8.796;2022-12-29T22:24:56;10.60;58.30
47845;DHT22;33605;48.822;8.796;2022-12-29T22:27:22;10.60;58.40
47845;DHT22;33605;48.822;8.796;2022-12-29T22:29:48;10.60;58.50
47845;DHT22;33605;48.822;8.796;2022-12-29T22:32:14;10.60;58.50
47845;DHT22;33605;48.822;8.796;2022-12-29T22:34:41;10.60;58.40
47845;DHT22;33605;48.822;8.796;2022-12-29T22:37:06;10.60;58.40
47845;DHT22;33605;48.822;8.796;2022-12-29T22:39:32;10.60;58.50
47845;DHT22;33605;48.822;8.796;2022-12-29T22:41:58;10.70;58.70
47845;DHT22;33605;48.822;8.796;2022-12-29T22:44:23;10.60;58.70
47845;DHT22;33605;48.822;8.796;2022-12-29T22:46:49;10.60;58.90
47845;DHT22;33605;48.822;8.796;2022-12-29T22:49:15;10.60;59.10
47845;DHT22;33605;48.822;8.796;2022-12-29T22:51:40;10.50;59.10
47845;DHT22;33605;48.822;8.796;2022-12-29T22:54:06;10.50;59.10
47845;DHT22;33605;48.822;8.796;2022-12-29T22:56:31;10.50;59.00
47845;DHT22;33605;48.822;8.796;2022-12-29T22:58:58;10.50;59.10
47845;DHT22;33605;48.822;8.796;2022-12-29T23:01:23;10.50;59.20
47845;DHT22;33605;48.822;8.796;2022-12-29T23:03:49;10.50;59.20
47845;DHT22;33605;48.822;8.796;2022-12-29T23:06:16;10.50;59.20
47845;DHT22;33605;48.822;8.796;2022-12-29T23:08:42;10.50;59.20
47845;DHT22;33605;48.822;8.796;2022-12-29T23:11:10;10.50;59.20
47845;DHT22;33605;48.822;8.796;2022-12-29T23:13:37;10.50;59.20
47845;DHT22;33605;48.822;8.796;2022-12-29T23:16:03;10.50;59.30
47845;DHT22;33605;48.822;8.796;2022-12-29T23:18:28;10.50;59.40
47845;DHT22;33605;48.822;8.796;2022-12-29T23:20:54;10.50;60.00
47845;DHT22;33605;48.822;8.796;2022-12-29T23:23:20;10.50;59.40
47845;DHT22;33605;48.822;8.796;2022-12-29T23:26:06;10.50;59.40
47845;DHT22;33605;48.822;8.796;2022-12-29T23:28:33;10.60;59.40
47845;DHT22;33605;48.822;8.796;2022-12-29T23:30:59;10.60;59.50
47845;DHT22;33605;48.822;8.796;2022-12-29T23:33:25;10.60;59.60
47845;DHT22;33605;48.822;8.796;2022-12-29T23:35:51;10.60;59.60
47845;DHT22;33605;48.822;8.796;2022-12-29T23:38:17;10.60;59.70
47845;DHT22;33605;48.822;8.796;2022-12-29T23:40:44;10.60;59.80
47845;DHT22;33605;48.822;8.796;2022-12-29T23:43:09;10.60;59.90
47845;DHT22;33605;48.822;8.796;2022-12-29T23:45:36;10.60;59.90
47845;DHT22;33605;48.822;8.796;2022-12-29T23:48:02;10.60;60.00
47845;DHT22;33605;48.822;8.796;2022-12-29T23:50:28;10.60;60.00
47845;DHT22;33605;48.822;8.796;2022-12-29T23:52:54;10.60;60.00
47845;DHT22;33605;48.822;8.796;2022-12-29T23:55:20;10.60;60.00
47845;DHT22;33605;48.822;8.796;2022-12-29T23:57:46;10.70;60.00
